Contoocook River @ Henniker, Nh

Contoocook River at Henniker
 Total Drainage Area: 368 sq. miles 
 Drainage Area Controlled by Corps Dams: 44 sq. miles (12%) 
 Warning Flow/Stage: 2,050 cfs / 9.0 feet 
 Flood Flow/Stage: 5,750 cfs / 11.5 feet 
Date Time
(Eastern)
Stage
(ft)
Flow
(cfs)
CSM
(cfs / sq. mi.)
Jun-25 01:30 am 6.27 421 1.1
Jun-25 12:30 am 6.20 399 1.1
Jun-24 11:30 pm 6.16 386 1.1
Jun-24 10:30 pm 6.16 386 1.1
Jun-24 09:30 pm 6.18 393 1.1
Jun-24 08:30 pm 6.18 393 1.1
Jun-24 07:30 pm 6.17 389 1.1
Jun-24 06:30 pm 6.19 396 1.1
Jun-24 05:30 pm 6.19 396 1.1
Jun-24 04:30 pm 6.18 393 1.1
Jun-24 03:30 pm 6.19 396 1.1
Jun-24 02:30 pm 6.19 396 1.1
Jun-24 01:30 pm 6.18 393 1.1
Jun-24 12:30 pm 6.17 389 1.1
Jun-24 11:30 am 6.15 383 1.0
Jun-24 10:30 am 6.12 374 1.0
Jun-24 09:30 am 6.09 365 1.0
Jun-24 08:30 am 6.06 356 1.0
Jun-24 07:30 am 6.03 347 .9
Jun-24 06:30 am 5.98 333 .9
Jun-24 05:30 am 5.93 318 .9
Jun-24 04:30 am 5.89 307 .8
Jun-24 03:30 am 5.86 299 .8
Jun-24 02:30 am 5.81 285 .8
Jun-24 01:30 am 5.81 285 .8
Report Generated June 25, 2024 01:53 am